sensor_id;sensor_type;location;lat;lon;timestamp;P1;durP1;ratioP1;P2;durP2;ratioP2
11604;SDS011;5858;43.076;25.626;2024-01-30T00:00:39;21.30;;;14.53;;
11604;SDS011;5858;43.076;25.626;2024-01-30T00:03:07;21.03;;;15.03;;
11604;SDS011;5858;43.076;25.626;2024-01-30T00:05:34;20.93;;;14.63;;
11604;SDS011;5858;43.076;25.626;2024-01-30T00:08:05;21.90;;;14.63;;
11604;SDS011;5858;43.076;25.626;2024-01-30T00:10:35;23.20;;;14.87;;
11604;SDS011;5858;43.076;25.626;2024-01-30T00:13:07;23.50;;;15.00;;
11604;SDS011;5858;43.076;25.626;2024-01-30T00:15:38;20.97;;;15.03;;
11604;SDS011;5858;43.076;25.626;2024-01-30T00:18:06;20.93;;;14.90;;
11604;SDS011;5858;43.076;25.626;2024-01-30T00:20:35;23.57;;;15.77;;
11604;SDS011;5858;43.076;25.626;2024-01-30T00:23:05;23.00;;;15.20;;
11604;SDS011;5858;43.076;25.626;2024-01-30T00:25:41;23.57;;;15.50;;
11604;SDS011;5858;43.076;25.626;2024-01-30T00:28:10;22.70;;;15.20;;
11604;SDS011;5858;43.076;25.626;2024-01-30T00:30:40;21.67;;;14.87;;
11604;SDS011;5858;43.076;25.626;2024-01-30T00:33:07;23.00;;;14.73;;
11604;SDS011;5858;43.076;25.626;2024-01-30T00:35:41;22.90;;;15.37;;
11604;SDS011;5858;43.076;25.626;2024-01-30T00:38:14;22.00;;;15.23;;
11604;SDS011;5858;43.076;25.626;2024-01-30T00:40:43;19.07;;;13.63;;
11604;SDS011;5858;43.076;25.626;2024-01-30T00:43:13;19.40;;;14.10;;
11604;SDS011;5858;43.076;25.626;2024-01-30T00:45:43;21.67;;;15.13;;
11604;SDS011;5858;43.076;25.626;2024-01-30T00:48:11;23.10;;;16.10;;
11604;SDS011;5858;43.076;25.626;2024-01-30T00:50:38;22.33;;;15.20;;
11604;SDS011;5858;43.076;25.626;2024-01-30T00:53:05;20.73;;;13.93;;
11604;SDS011;5858;43.076;25.626;2024-01-30T00:55:34;20.40;;;14.93;;
11604;SDS011;5858;43.076;25.626;2024-01-30T00:58:02;21.00;;;14.30;;
11604;SDS011;5858;43.076;25.626;2024-01-30T01:00:31;19.93;;;14.67;;
11604;SDS011;5858;43.076;25.626;2024-01-30T01:02:59;21.53;;;14.73;;
11604;SDS011;5858;43.076;25.626;2024-01-30T01:05:26;21.93;;;15.00;;
11604;SDS011;5858;43.076;25.626;2024-01-30T01:07:54;21.97;;;14.33;;
11604;SDS011;5858;43.076;25.626;2024-01-30T01:10:22;21.43;;;14.87;;
11604;SDS011;5858;43.076;25.626;2024-01-30T01:12:50;28.77;;;17.77;;
11604;SDS011;5858;43.076;25.626;2024-01-30T01:15:17;21.33;;;14.37;;
11604;SDS011;5858;43.076;25.626;2024-01-30T01:17:44;19.80;;;14.67;;
11604;SDS011;5858;43.076;25.626;2024-01-30T01:20:12;19.57;;;14.00;;
11604;SDS011;5858;43.076;25.626;2024-01-30T01:22:39;22.33;;;14.13;;
11604;SDS011;5858;43.076;25.626;2024-01-30T01:25:06;20.63;;;13.97;;
11604;SDS011;5858;43.076;25.626;2024-01-30T01:27:36;21.60;;;14.30;;
11604;SDS011;5858;43.076;25.626;2024-01-30T01:30:09;20.30;;;14.30;;
11604;SDS011;5858;43.076;25.626;2024-01-30T01:32:51;18.07;;;13.70;;
11604;SDS011;5858;43.076;25.626;2024-01-30T01:35:27;18.77;;;13.73;;
11604;SDS011;5858;43.076;25.626;2024-01-30T01:37:57;19.03;;;13.43;;
11604;SDS011;5858;43.076;25.626;2024-01-30T01:40:36;17.83;;;12.97;;
11604;SDS011;5858;43.076;25.626;2024-01-30T01:43:06;20.47;;;14.10;;
11604;SDS011;5858;43.076;25.626;2024-01-30T01:45:43;19.97;;;13.83;;
11604;SDS011;5858;43.076;25.626;2024-01-30T01:48:13;18.80;;;13.03;;
11604;SDS011;5858;43.076;25.626;2024-01-30T01:51:10;17.60;;;13.20;;
11604;SDS011;5858;43.076;25.626;2024-01-30T01:53:42;18.07;;;14.53;;
11604;SDS011;5858;43.076;25.626;2024-01-30T01:56:10;19.17;;;13.37;;
11604;SDS011;5858;43.076;25.626;2024-01-30T01:58:37;18.80;;;13.07;;
11604;SDS011;5858;43.076;25.626;2024-01-30T02:01:09;18.23;;;12.73;;
11604;SDS011;5858;43.076;25.626;2024-01-30T02:03:44;19.17;;;13.33;;
11604;SDS011;5858;43.076;25.626;2024-01-30T02:06:13;17.57;;;13.30;;
11604;SDS011;5858;43.076;25.626;2024-01-30T02:08:57;18.83;;;13.93;;
11604;SDS011;5858;43.076;25.626;2024-01-30T02:11:25;18.97;;;14.03;;
11604;SDS011;5858;43.076;25.626;2024-01-30T02:13:56;18.67;;;13.87;;
11604;SDS011;5858;43.076;25.626;2024-01-30T02:16:28;20.00;;;14.17;;
11604;SDS011;5858;43.076;25.626;2024-01-30T02:18:58;18.97;;;13.63;;
11604;SDS011;5858;43.076;25.626;2024-01-30T02:21:27;18.37;;;14.43;;
11604;SDS011;5858;43.076;25.626;2024-01-30T02:23:56;18.53;;;13.20;;
11604;SDS011;5858;43.076;25.626;2024-01-30T02:26:36;18.33;;;13.83;;
11604;SDS011;5858;43.076;25.626;2024-01-30T02:29:04;21.73;;;15.03;;
11604;SDS011;5858;43.076;25.626;2024-01-30T02:31:32;18.10;;;14.03;;
11604;SDS011;5858;43.076;25.626;2024-01-30T02:33:59;18.13;;;14.07;;
11604;SDS011;5858;43.076;25.626;2024-01-30T02:36:30;17.00;;;12.60;;
11604;SDS011;5858;43.076;25.626;2024-01-30T02:38:58;18.73;;;13.43;;
11604;SDS011;5858;43.076;25.626;2024-01-30T02:41:28;18.23;;;13.83;;
11604;SDS011;5858;43.076;25.626;2024-01-30T02:44:00;18.97;;;13.17;;
11604;SDS011;5858;43.076;25.626;2024-01-30T02:46:31;18.47;;;14.03;;
11604;SDS011;5858;43.076;25.626;2024-01-30T02:49:02;18.90;;;13.47;;
11604;SDS011;5858;43.076;25.626;2024-01-30T02:51:31;20.77;;;14.57;;
11604;SDS011;5858;43.076;25.626;2024-01-30T02:54:01;19.33;;;13.90;;
11604;SDS011;5858;43.076;25.626;2024-01-30T02:56:28;19.80;;;14.70;;
11604;SDS011;5858;43.076;25.626;2024-01-30T02:58:58;18.33;;;14.70;;
11604;SDS011;5858;43.076;25.626;2024-01-30T03:01:26;17.77;;;14.00;;
11604;SDS011;5858;43.076;25.626;2024-01-30T03:06:52;19.47;;;14.07;;
11604;SDS011;5858;43.076;25.626;2024-01-30T03:09:32;18.17;;;13.90;;
11604;SDS011;5858;43.076;25.626;2024-01-30T03:12:04;17.40;;;14.23;;
11604;SDS011;5858;43.076;25.626;2024-01-30T03:14:39;19.83;;;14.17;;
11604;SDS011;5858;43.076;25.626;2024-01-30T03:17:09;18.73;;;14.23;;
11604;SDS011;5858;43.076;25.626;2024-01-30T03:19:37;18.60;;;14.07;;
11604;SDS011;5858;43.076;25.626;2024-01-30T03:22:14;17.60;;;13.60;;
11604;SDS011;5858;43.076;25.626;2024-01-30T03:24:42;20.20;;;14.53;;
11604;SDS011;5858;43.076;25.626;2024-01-30T03:27:09;18.17;;;14.03;;
11604;SDS011;5858;43.076;25.626;2024-01-30T03:29:44;18.67;;;13.50;;
11604;SDS011;5858;43.076;25.626;2024-01-30T03:32:17;18.20;;;13.57;;
11604;SDS011;5858;43.076;25.626;2024-01-30T03:34:44;18.73;;;13.87;;
11604;SDS011;5858;43.076;25.626;2024-01-30T03:37:15;18.30;;;13.67;;
11604;SDS011;5858;43.076;25.626;2024-01-30T03:39:45;19.53;;;14.77;;
11604;SDS011;5858;43.076;25.626;2024-01-30T03:42:14;20.40;;;14.60;;
11604;SDS011;5858;43.076;25.626;2024-01-30T03:44:45;17.37;;;13.70;;
11604;SDS011;5858;43.076;25.626;2024-01-30T03:47:13;17.80;;;13.70;;
11604;SDS011;5858;43.076;25.626;2024-01-30T03:49:48;17.97;;;13.33;;
11604;SDS011;5858;43.076;25.626;2024-01-30T03:52:25;17.97;;;13.57;;
11604;SDS011;5858;43.076;25.626;2024-01-30T03:54:55;19.70;;;13.70;;
11604;SDS011;5858;43.076;25.626;2024-01-30T03:57:22;19.60;;;14.70;;
11604;SDS011;5858;43.076;25.626;2024-01-30T03:59:52;20.13;;;14.70;;
11604;SDS011;5858;43.076;25.626;2024-01-30T04:02:19;18.50;;;14.20;;
11604;SDS011;5858;43.076;25.626;2024-01-30T04:04:47;18.27;;;13.73;;
11604;SDS011;5858;43.076;25.626;2024-01-30T04:07:14;17.43;;;13.83;;
11604;SDS011;5858;43.076;25.626;2024-01-30T04:09:46;20.20;;;14.77;;
11604;SDS011;5858;43.076;25.626;2024-01-30T04:12:13;19.07;;;13.83;;
11604;SDS011;5858;43.076;25.626;2024-01-30T04:14:43;17.83;;;13.57;;
11604;SDS011;5858;43.076;25.626;2024-01-30T04:17:14;17.87;;;13.90;;
11604;SDS011;5858;43.076;25.626;2024-01-30T04:19:41;19.63;;;13.80;;
11604;SDS011;5858;43.076;25.626;2024-01-30T04:22:11;17.50;;;13.30;;
11604;SDS011;5858;43.076;25.626;2024-01-30T04:24:38;18.20;;;13.60;;
11604;SDS011;5858;43.076;25.626;2024-01-30T04:27:10;19.77;;;13.73;;
11604;SDS011;5858;43.076;25.626;2024-01-30T04:29:37;19.23;;;13.70;;
11604;SDS011;5858;43.076;25.626;2024-01-30T04:32:08;16.27;;;12.90;;
11604;SDS011;5858;43.076;25.626;2024-01-30T04:34:37;20.43;;;14.80;;
11604;SDS011;5858;43.076;25.626;2024-01-30T04:37:08;18.47;;;13.00;;
11604;SDS011;5858;43.076;25.626;2024-01-30T04:39:37;19.10;;;13.73;;
11604;SDS011;5858;43.076;25.626;2024-01-30T04:42:06;18.27;;;13.87;;
11604;SDS011;5858;43.076;25.626;2024-01-30T04:44:35;17.63;;;13.27;;
11604;SDS011;5858;43.076;25.626;2024-01-30T04:47:02;17.40;;;13.77;;
11604;SDS011;5858;43.076;25.626;2024-01-30T04:49:43;20.53;;;14.67;;
11604;SDS011;5858;43.076;25.626;2024-01-30T04:52:13;17.97;;;13.23;;
11604;SDS011;5858;43.076;25.626;2024-01-30T04:54:41;19.67;;;14.00;;
11604;SDS011;5858;43.076;25.626;2024-01-30T04:57:09;19.77;;;13.93;;
11604;SDS011;5858;43.076;25.626;2024-01-30T04:59:39;18.97;;;14.03;;
11604;SDS011;5858;43.076;25.626;2024-01-30T05:02:09;18.80;;;14.57;;
11604;SDS011;5858;43.076;25.626;2024-01-30T05:04:40;21.40;;;15.03;;
11604;SDS011;5858;43.076;25.626;2024-01-30T05:07:11;22.47;;;15.20;;
11604;SDS011;5858;43.076;25.626;2024-01-30T05:10:02;19.90;;;14.70;;
11604;SDS011;5858;43.076;25.626;2024-01-30T05:12:42;23.37;;;15.37;;
11604;SDS011;5858;43.076;25.626;2024-01-30T05:15:23;19.30;;;14.70;;
11604;SDS011;5858;43.076;25.626;2024-01-30T05:17:51;21.20;;;15.43;;
11604;SDS011;5858;43.076;25.626;2024-01-30T05:20:22;18.57;;;14.00;;
11604;SDS011;5858;43.076;25.626;2024-01-30T05:22:55;19.50;;;14.43;;
11604;SDS011;5858;43.076;25.626;2024-01-30T05:25:29;20.53;;;15.60;;
11604;SDS011;5858;43.076;25.626;2024-01-30T05:27:59;21.10;;;15.30;;
11604;SDS011;5858;43.076;25.626;2024-01-30T05:33:38;18.77;;;15.20;;
11604;SDS011;5858;43.076;25.626;2024-01-30T05:36:11;20.83;;;15.33;;
11604;SDS011;5858;43.076;25.626;2024-01-30T05:38:39;23.17;;;15.47;;
11604;SDS011;5858;43.076;25.626;2024-01-30T05:41:07;19.57;;;15.77;;
11604;SDS011;5858;43.076;25.626;2024-01-30T05:43:35;18.97;;;13.90;;
11604;SDS011;5858;43.076;25.626;2024-01-30T05:46:04;16.87;;;13.30;;
11604;SDS011;5858;43.076;25.626;2024-01-30T05:48:34;21.77;;;15.37;;
11604;SDS011;5858;43.076;25.626;2024-01-30T05:51:05;22.53;;;14.27;;
11604;SDS011;5858;43.076;25.626;2024-01-30T05:53:36;21.50;;;15.33;;
11604;SDS011;5858;43.076;25.626;2024-01-30T05:56:12;19.17;;;14.70;;
11604;SDS011;5858;43.076;25.626;2024-01-30T05:58:43;21.37;;;15.33;;
11604;SDS011;5858;43.076;25.626;2024-01-30T06:01:14;19.27;;;14.43;;
11604;SDS011;5858;43.076;25.626;2024-01-30T06:03:44;21.03;;;14.47;;
11604;SDS011;5858;43.076;25.626;2024-01-30T06:06:19;20.83;;;14.23;;
11604;SDS011;5858;43.076;25.626;2024-01-30T06:08:51;23.83;;;15.43;;
11604;SDS011;5858;43.076;25.626;2024-01-30T06:11:40;19.93;;;14.67;;
11604;SDS011;5858;43.076;25.626;2024-01-30T06:14:14;21.27;;;14.30;;
11604;SDS011;5858;43.076;25.626;2024-01-30T06:23:17;21.60;;;15.13;;
11604;SDS011;5858;43.076;25.626;2024-01-30T06:26:26;20.00;;;14.20;;
11604;SDS011;5858;43.076;25.626;2024-01-30T06:29:04;21.43;;;14.80;;
11604;SDS011;5858;43.076;25.626;2024-01-30T06:34:36;18.77;;;14.27;;
11604;SDS011;5858;43.076;25.626;2024-01-30T06:37:15;20.30;;;14.77;;
11604;SDS011;5858;43.076;25.626;2024-01-30T06:42:46;20.83;;;14.50;;
11604;SDS011;5858;43.076;25.626;2024-01-30T06:45:14;20.83;;;14.87;;
11604;SDS011;5858;43.076;25.626;2024-01-30T06:47:46;19.27;;;14.07;;
11604;SDS011;5858;43.076;25.626;2024-01-30T06:50:26;18.53;;;13.73;;
11604;SDS011;5858;43.076;25.626;2024-01-30T06:53:14;17.03;;;13.07;;
11604;SDS011;5858;43.076;25.626;2024-01-30T07:28:26;23.50;;;14.57;;
11604;SDS011;5858;43.076;25.626;2024-01-30T07:34:07;22.37;;;15.47;;
11604;SDS011;5858;43.076;25.626;2024-01-30T07:37:12;18.97;;;14.80;;
11604;SDS011;5858;43.076;25.626;2024-01-30T07:39:59;22.67;;;15.07;;
11604;SDS011;5858;43.076;25.626;2024-01-30T07:42:57;22.43;;;15.33;;
11604;SDS011;5858;43.076;25.626;2024-01-30T07:45:34;19.83;;;14.47;;
11604;SDS011;5858;43.076;25.626;2024-01-30T07:48:06;24.00;;;14.60;;
11604;SDS011;5858;43.076;25.626;2024-01-30T07:50:36;19.13;;;14.67;;
11604;SDS011;5858;43.076;25.626;2024-01-30T07:53:05;27.63;;;18.07;;
11604;SDS011;5858;43.076;25.626;2024-01-30T07:55:36;24.80;;;16.53;;
11604;SDS011;5858;43.076;25.626;2024-01-30T07:58:17;24.67;;;15.80;;
11604;SDS011;5858;43.076;25.626;2024-01-30T08:00:59;23.13;;;15.23;;
11604;SDS011;5858;43.076;25.626;2024-01-30T08:03:49;22.27;;;14.40;;
11604;SDS011;5858;43.076;25.626;2024-01-30T08:06:29;19.47;;;12.57;;
11604;SDS011;5858;43.076;25.626;2024-01-30T08:08:59;20.53;;;13.50;;
11604;SDS011;5858;43.076;25.626;2024-01-30T08:11:44;17.70;;;12.50;;
11604;SDS011;5858;43.076;25.626;2024-01-30T08:14:26;18.70;;;12.53;;
11604;SDS011;5858;43.076;25.626;2024-01-30T08:17:08;21.77;;;15.13;;
11604;SDS011;5858;43.076;25.626;2024-01-30T08:19:35;28.67;;;19.33;;
11604;SDS011;5858;43.076;25.626;2024-01-30T08:22:34;27.23;;;19.80;;
11604;SDS011;5858;43.076;25.626;2024-01-30T08:25:02;20.97;;;13.63;;
11604;SDS011;5858;43.076;25.626;2024-01-30T08:27:32;20.17;;;14.47;;
11604;SDS011;5858;43.076;25.626;2024-01-30T08:30:02;20.00;;;14.07;;
11604;SDS011;5858;43.076;25.626;2024-01-30T08:32:31;19.97;;;13.67;;
11604;SDS011;5858;43.076;25.626;2024-01-30T08:35:01;18.50;;;12.30;;
11604;SDS011;5858;43.076;25.626;2024-01-30T08:37:43;22.53;;;15.37;;
11604;SDS011;5858;43.076;25.626;2024-01-30T08:40:13;19.70;;;13.40;;
11604;SDS011;5858;43.076;25.626;2024-01-30T08:42:52;24.00;;;15.07;;
11604;SDS011;5858;43.076;25.626;2024-01-30T08:45:22;22.57;;;16.53;;
11604;SDS011;5858;43.076;25.626;2024-01-30T08:47:59;26.87;;;19.20;;
11604;SDS011;5858;43.076;25.626;2024-01-30T08:50:27;29.63;;;22.17;;
11604;SDS011;5858;43.076;25.626;2024-01-30T08:53:19;27.63;;;16.13;;
11604;SDS011;5858;43.076;25.626;2024-01-30T08:55:59;25.87;;;16.43;;
11604;SDS011;5858;43.076;25.626;2024-01-30T08:58:44;26.43;;;20.20;;
11604;SDS011;5858;43.076;25.626;2024-01-30T09:01:23;18.17;;;13.20;;
11604;SDS011;5858;43.076;25.626;2024-01-30T09:07:28;21.07;;;15.90;;
11604;SDS011;5858;43.076;25.626;2024-01-30T09:10:00;19.20;;;14.57;;
11604;SDS011;5858;43.076;25.626;2024-01-30T09:12:28;18.23;;;12.30;;
11604;SDS011;5858;43.076;25.626;2024-01-30T09:15:10;17.40;;;13.20;;
11604;SDS011;5858;43.076;25.626;2024-01-30T09:17:38;19.17;;;12.77;;
11604;SDS011;5858;43.076;25.626;2024-01-30T09:20:11;16.13;;;12.13;;
11604;SDS011;5858;43.076;25.626;2024-01-30T09:22:39;17.73;;;13.07;;
11604;SDS011;5858;43.076;25.626;2024-01-30T09:25:12;16.17;;;12.00;;
11604;SDS011;5858;43.076;25.626;2024-01-30T09:27:40;20.53;;;13.87;;
11604;SDS011;5858;43.076;25.626;2024-01-30T09:30:10;19.30;;;12.97;;
11604;SDS011;5858;43.076;25.626;2024-01-30T09:32:39;21.43;;;14.67;;
11604;SDS011;5858;43.076;25.626;2024-01-30T09:35:07;17.07;;;12.77;;
11604;SDS011;5858;43.076;25.626;2024-01-30T09:37:40;18.57;;;12.40;;
11604;SDS011;5858;43.076;25.626;2024-01-30T09:40:17;15.67;;;12.63;;
11604;SDS011;5858;43.076;25.626;2024-01-30T09:42:54;20.53;;;14.37;;
11604;SDS011;5858;43.076;25.626;2024-01-30T09:45:33;19.47;;;13.90;;
11604;SDS011;5858;43.076;25.626;2024-01-30T09:48:07;15.20;;;11.87;;
11604;SDS011;5858;43.076;25.626;2024-01-30T09:50:38;18.10;;;12.73;;
11604;SDS011;5858;43.076;25.626;2024-01-30T09:53:10;18.23;;;13.70;;
11604;SDS011;5858;43.076;25.626;2024-01-30T09:55:56;15.63;;;11.57;;
11604;SDS011;5858;43.076;25.626;2024-01-30T09:58:29;16.43;;;12.40;;
11604;SDS011;5858;43.076;25.626;2024-01-30T10:00:57;18.93;;;12.67;;
11604;SDS011;5858;43.076;25.626;2024-01-30T10:03:25;18.63;;;12.50;;
11604;SDS011;5858;43.076;25.626;2024-01-30T10:05:52;16.83;;;13.03;;
11604;SDS011;5858;43.076;25.626;2024-01-30T10:08:25;20.87;;;13.70;;
11604;SDS011;5858;43.076;25.626;2024-01-30T10:10:59;16.67;;;12.03;;
11604;SDS011;5858;43.076;25.626;2024-01-30T10:13:59;19.87;;;13.27;;
11604;SDS011;5858;43.076;25.626;2024-01-30T10:16:26;16.83;;;11.83;;
11604;SDS011;5858;43.076;25.626;2024-01-30T10:18:57;33.07;;;22.33;;
11604;SDS011;5858;43.076;25.626;2024-01-30T10:21:25;18.80;;;12.97;;
11604;SDS011;5858;43.076;25.626;2024-01-30T10:23:59;16.63;;;11.53;;
11604;SDS011;5858;43.076;25.626;2024-01-30T10:26:26;14.83;;;11.77;;
11604;SDS011;5858;43.076;25.626;2024-01-30T10:28:54;16.40;;;11.67;;
11604;SDS011;5858;43.076;25.626;2024-01-30T10:31:21;14.83;;;11.03;;
11604;SDS011;5858;43.076;25.626;2024-01-30T10:33:49;19.07;;;14.07;;
11604;SDS011;5858;43.076;25.626;2024-01-30T10:36:16;17.07;;;11.70;;
11604;SDS011;5858;43.076;25.626;2024-01-30T10:38:51;26.83;;;18.23;;
11604;SDS011;5858;43.076;25.626;2024-01-30T10:41:27;16.13;;;11.27;;
11604;SDS011;5858;43.076;25.626;2024-01-30T10:44:02;20.77;;;12.90;;
11604;SDS011;5858;43.076;25.626;2024-01-30T10:46:45;14.27;;;10.77;;
11604;SDS011;5858;43.076;25.626;2024-01-30T10:49:26;16.97;;;12.90;;
11604;SDS011;5858;43.076;25.626;2024-01-30T10:51:59;16.87;;;10.90;;
11604;SDS011;5858;43.076;25.626;2024-01-30T10:54:38;12.77;;;9.67;;
11604;SDS011;5858;43.076;25.626;2024-01-30T10:57:30;14.00;;;9.93;;
11604;SDS011;5858;43.076;25.626;2024-01-30T11:00:11;16.13;;;10.83;;
11604;SDS011;5858;43.076;25.626;2024-01-30T11:02:45;13.70;;;10.23;;
11604;SDS011;5858;43.076;25.626;2024-01-30T11:05:22;13.63;;;10.07;;
11604;SDS011;5858;43.076;25.626;2024-01-30T11:07:52;16.17;;;10.70;;
11604;SDS011;5858;43.076;25.626;2024-01-30T11:10:20;13.83;;;9.93;;
11604;SDS011;5858;43.076;25.626;2024-01-30T11:12:48;13.77;;;10.37;;
11604;SDS011;5858;43.076;25.626;2024-01-30T11:15:20;16.60;;;11.13;;
11604;SDS011;5858;43.076;25.626;2024-01-30T11:17:50;13.33;;;9.83;;
11604;SDS011;5858;43.076;25.626;2024-01-30T11:20:22;12.60;;;9.77;;
11604;SDS011;5858;43.076;25.626;2024-01-30T11:22:53;13.83;;;9.77;;
11604;SDS011;5858;43.076;25.626;2024-01-30T11:25:21;14.80;;;10.23;;
11604;SDS011;5858;43.076;25.626;2024-01-30T11:27:51;16.03;;;10.87;;
11604;SDS011;5858;43.076;25.626;2024-01-30T11:30:22;14.00;;;9.90;;
11604;SDS011;5858;43.076;25.626;2024-01-30T11:33:00;16.73;;;10.83;;
11604;SDS011;5858;43.076;25.626;2024-01-30T11:35:29;13.47;;;9.70;;
11604;SDS011;5858;43.076;25.626;2024-01-30T11:37:58;12.53;;;9.10;;
11604;SDS011;5858;43.076;25.626;2024-01-30T11:40:26;17.47;;;10.27;;
11604;SDS011;5858;43.076;25.626;2024-01-30T11:42:56;17.83;;;12.17;;
11604;SDS011;5858;43.076;25.626;2024-01-30T11:45:27;15.50;;;11.43;;
11604;SDS011;5858;43.076;25.626;2024-01-30T11:47:54;17.10;;;12.80;;
11604;SDS011;5858;43.076;25.626;2024-01-30T11:50:21;18.33;;;12.87;;
11604;SDS011;5858;43.076;25.626;2024-01-30T11:52:54;16.67;;;11.90;;
11604;SDS011;5858;43.076;25.626;2024-01-30T11:55:22;16.67;;;11.80;;
11604;SDS011;5858;43.076;25.626;2024-01-30T11:57:50;18.70;;;11.33;;
11604;SDS011;5858;43.076;25.626;2024-01-30T12:00:21;16.53;;;11.40;;
11604;SDS011;5858;43.076;25.626;2024-01-30T12:02:51;18.03;;;11.57;;
11604;SDS011;5858;43.076;25.626;2024-01-30T12:05:21;18.37;;;11.63;;
11604;SDS011;5858;43.076;25.626;2024-01-30T12:07:48;14.43;;;10.70;;
11604;SDS011;5858;43.076;25.626;2024-01-30T12:10:15;19.23;;;11.53;;
11604;SDS011;5858;43.076;25.626;2024-01-30T12:12:44;17.07;;;11.60;;
11604;SDS011;5858;43.076;25.626;2024-01-30T12:15:18;18.73;;;10.93;;
11604;SDS011;5858;43.076;25.626;2024-01-30T12:17:51;19.47;;;12.97;;
11604;SDS011;5858;43.076;25.626;2024-01-30T12:20:19;16.80;;;11.43;;
11604;SDS011;5858;43.076;25.626;2024-01-30T12:22:48;15.77;;;9.67;;
11604;SDS011;5858;43.076;25.626;2024-01-30T12:25:17;14.37;;;10.17;;
11604;SDS011;5858;43.076;25.626;2024-01-30T12:27:45;13.60;;;10.27;;
11604;SDS011;5858;43.076;25.626;2024-01-30T12:30:15;16.23;;;11.37;;
11604;SDS011;5858;43.076;25.626;2024-01-30T12:32:43;16.40;;;10.03;;
11604;SDS011;5858;43.076;25.626;2024-01-30T12:35:14;11.80;;;9.07;;
11604;SDS011;5858;43.076;25.626;2024-01-30T12:37:44;15.13;;;10.43;;
11604;SDS011;5858;43.076;25.626;2024-01-30T12:40:17;15.13;;;10.80;;
11604;SDS011;5858;43.076;25.626;2024-01-30T12:42:46;16.30;;;10.70;;
11604;SDS011;5858;43.076;25.626;2024-01-30T12:45:15;15.00;;;10.67;;
11604;SDS011;5858;43.076;25.626;2024-01-30T12:47:45;17.33;;;10.07;;
11604;SDS011;5858;43.076;25.626;2024-01-30T12:50:14;15.67;;;10.37;;
11604;SDS011;5858;43.076;25.626;2024-01-30T12:52:42;12.90;;;9.43;;
11604;SDS011;5858;43.076;25.626;2024-01-30T12:55:10;14.93;;;9.87;;
11604;SDS011;5858;43.076;25.626;2024-01-30T12:57:38;15.23;;;11.00;;
11604;SDS011;5858;43.076;25.626;2024-01-30T13:00:06;13.47;;;10.10;;
11604;SDS011;5858;43.076;25.626;2024-01-30T13:02:34;22.23;;;13.00;;
11604;SDS011;5858;43.076;25.626;2024-01-30T13:05:04;16.40;;;10.90;;
11604;SDS011;5858;43.076;25.626;2024-01-30T13:07:34;16.93;;;11.67;;
11604;SDS011;5858;43.076;25.626;2024-01-30T13:10:05;15.50;;;9.60;;
11604;SDS011;5858;43.076;25.626;2024-01-30T13:12:35;18.17;;;11.80;;
11604;SDS011;5858;43.076;25.626;2024-01-30T13:15:04;17.13;;;10.73;;
11604;SDS011;5858;43.076;25.626;2024-01-30T13:17:32;15.40;;;10.20;;
11604;SDS011;5858;43.076;25.626;2024-01-30T13:19:59;14.70;;;10.23;;
11604;SDS011;5858;43.076;25.626;2024-01-30T13:22:37;16.57;;;8.77;;
11604;SDS011;5858;43.076;25.626;2024-01-30T13:25:05;19.80;;;12.00;;
11604;SDS011;5858;43.076;25.626;2024-01-30T13:30:38;15.80;;;10.83;;
11604;SDS011;5858;43.076;25.626;2024-01-30T13:33:05;13.87;;;10.53;;
11604;SDS011;5858;43.076;25.626;2024-01-30T13:35:32;23.13;;;11.40;;
11604;SDS011;5858;43.076;25.626;2024-01-30T13:38:04;20.67;;;12.53;;
11604;SDS011;5858;43.076;25.626;2024-01-30T13:40:31;24.60;;;16.23;;
11604;SDS011;5858;43.076;25.626;2024-01-30T13:42:58;19.97;;;12.00;;
11604;SDS011;5858;43.076;25.626;2024-01-30T13:45:25;17.33;;;10.57;;
11604;SDS011;5858;43.076;25.626;2024-01-30T13:47:53;13.13;;;9.17;;
11604;SDS011;5858;43.076;25.626;2024-01-30T13:50:20;12.30;;;9.40;;
11604;SDS011;5858;43.076;25.626;2024-01-30T13:52:47;10.93;;;8.13;;
11604;SDS011;5858;43.076;25.626;2024-01-30T13:55:17;11.60;;;8.70;;
11604;SDS011;5858;43.076;25.626;2024-01-30T13:57:44;11.03;;;8.50;;
11604;SDS011;5858;43.076;25.626;2024-01-30T14:00:11;15.27;;;10.00;;
11604;SDS011;5858;43.076;25.626;2024-01-30T14:02:41;13.13;;;7.93;;
11604;SDS011;5858;43.076;25.626;2024-01-30T14:05:08;13.47;;;9.13;;
11604;SDS011;5858;43.076;25.626;2024-01-30T14:07:35;11.60;;;8.50;;
11604;SDS011;5858;43.076;25.626;2024-01-30T14:10:04;11.63;;;8.00;;
11604;SDS011;5858;43.076;25.626;2024-01-30T14:12:35;12.57;;;8.60;;
11604;SDS011;5858;43.076;25.626;2024-01-30T14:15:02;15.13;;;10.63;;
11604;SDS011;5858;43.076;25.626;2024-01-30T14:17:30;16.30;;;9.53;;
11604;SDS011;5858;43.076;25.626;2024-01-30T14:19:57;15.50;;;10.33;;
11604;SDS011;5858;43.076;25.626;2024-01-30T14:22:24;14.40;;;9.67;;
11604;SDS011;5858;43.076;25.626;2024-01-30T14:24:51;13.67;;;8.93;;
11604;SDS011;5858;43.076;25.626;2024-01-30T14:27:18;14.63;;;9.33;;
11604;SDS011;5858;43.076;25.626;2024-01-30T14:29:46;14.77;;;10.57;;
11604;SDS011;5858;43.076;25.626;2024-01-30T14:32:13;17.87;;;12.90;;
11604;SDS011;5858;43.076;25.626;2024-01-30T14:34:41;15.97;;;11.37;;
11604;SDS011;5858;43.076;25.626;2024-01-30T14:37:08;17.77;;;10.47;;
11604;SDS011;5858;43.076;25.626;2024-01-30T14:39:37;16.37;;;11.97;;
11604;SDS011;5858;43.076;25.626;2024-01-30T14:42:06;18.47;;;12.73;;
11604;SDS011;5858;43.076;25.626;2024-01-30T14:44:33;19.70;;;12.67;;
11604;SDS011;5858;43.076;25.626;2024-01-30T14:47:01;17.93;;;12.93;;
11604;SDS011;5858;43.076;25.626;2024-01-30T14:49:29;17.87;;;12.80;;
11604;SDS011;5858;43.076;25.626;2024-01-30T14:51:56;16.97;;;12.57;;
11604;SDS011;5858;43.076;25.626;2024-01-30T14:54:26;29.53;;;17.13;;
11604;SDS011;5858;43.076;25.626;2024-01-30T14:56:53;17.97;;;12.27;;
11604;SDS011;5858;43.076;25.626;2024-01-30T14:59:20;25.87;;;14.30;;
11604;SDS011;5858;43.076;25.626;2024-01-30T15:01:49;16.10;;;11.80;;
11604;SDS011;5858;43.076;25.626;2024-01-30T15:04:17;19.23;;;13.90;;
11604;SDS011;5858;43.076;25.626;2024-01-30T15:06:44;19.73;;;13.30;;
11604;SDS011;5858;43.076;25.626;2024-01-30T15:09:13;17.87;;;13.33;;
11604;SDS011;5858;43.076;25.626;2024-01-30T15:11:41;19.00;;;13.10;;
11604;SDS011;5858;43.076;25.626;2024-01-30T15:14:08;16.87;;;11.93;;
11604;SDS011;5858;43.076;25.626;2024-01-30T15:16:35;17.67;;;11.60;;
11604;SDS011;5858;43.076;25.626;2024-01-30T15:19:02;17.53;;;11.83;;
11604;SDS011;5858;43.076;25.626;2024-01-30T15:21:35;17.60;;;12.57;;
11604;SDS011;5858;43.076;25.626;2024-01-30T15:24:02;18.60;;;12.83;;
11604;SDS011;5858;43.076;25.626;2024-01-30T15:26:29;19.53;;;13.47;;
11604;SDS011;5858;43.076;25.626;2024-01-30T15:28:57;22.37;;;14.17;;
11604;SDS011;5858;43.076;25.626;2024-01-30T15:31:24;22.10;;;15.87;;
11604;SDS011;5858;43.076;25.626;2024-01-30T15:33:51;20.90;;;13.47;;
11604;SDS011;5858;43.076;25.626;2024-01-30T15:36:20;17.93;;;13.03;;
11604;SDS011;5858;43.076;25.626;2024-01-30T15:38:48;18.33;;;13.10;;
11604;SDS011;5858;43.076;25.626;2024-01-30T15:41:17;21.60;;;14.30;;
11604;SDS011;5858;43.076;25.626;2024-01-30T15:43:50;24.43;;;16.60;;
11604;SDS011;5858;43.076;25.626;2024-01-30T15:46:29;20.30;;;13.20;;
11604;SDS011;5858;43.076;25.626;2024-01-30T15:49:01;34.17;;;19.40;;